createdAt,value
2023-04-10T00:00:49.817Z,99.90
2023-04-10T00:03:18.225Z,99.90
2023-04-10T00:05:46.728Z,99.90
2023-04-10T00:08:13.362Z,99.90
2023-04-10T00:10:40.680Z,99.90
2023-04-10T00:13:07.508Z,99.90
2023-04-10T00:15:34.175Z,99.90
2023-04-10T00:18:02.027Z,99.90
2023-04-10T00:20:28.822Z,99.90
2023-04-10T00:22:55.637Z,99.90
2023-04-10T00:25:25.684Z,99.90
2023-04-10T00:27:53.511Z,99.90
2023-04-10T00:30:22.201Z,99.90
2023-04-10T00:32:48.928Z,99.90
2023-04-10T00:35:15.617Z,99.90
2023-04-10T00:37:42.276Z,99.90
2023-04-10T00:40:09.143Z,99.90
2023-04-10T00:42:36.008Z,99.90
2023-04-10T00:45:02.749Z,99.90
2023-04-10T00:47:31.177Z,99.90
2023-04-10T00:49:58.049Z,99.90
2023-04-10T00:52:24.733Z,99.90
2023-04-10T00:54:51.353Z,99.90
2023-04-10T00:57:18.344Z,99.90
2023-04-10T00:59:45.304Z,99.90
2023-04-10T01:02:13.440Z,99.90
2023-04-10T01:04:40.463Z,99.90
2023-04-10T01:07:12.233Z,99.90
2023-04-10T01:09:44.660Z,99.90
2023-04-10T01:12:16.587Z,99.90
2023-04-10T01:14:55.559Z,99.90
2023-04-10T01:17:23.327Z,99.90
2023-04-10T01:19:53.180Z,99.90
2023-04-10T01:22:19.923Z,99.90
2023-04-10T01:25:11.177Z,99.90
2023-04-10T01:28:01.170Z,99.90
2023-04-10T01:30:27.948Z,99.90
2023-04-10T01:32:56.046Z,99.90
2023-04-10T01:35:22.837Z,99.90
2023-04-10T01:37:49.560Z,99.90
2023-04-10T01:40:17.179Z,99.90
2023-04-10T01:42:45.252Z,99.90
2023-04-10T01:45:12.760Z,99.90
2023-04-10T01:47:39.567Z,99.90
2023-04-10T01:50:06.530Z,99.90
2023-04-10T01:52:33.611Z,99.90
2023-04-10T01:55:01.142Z,99.90
2023-04-10T01:57:30.905Z,99.90
2023-04-10T01:59:57.953Z,99.90
2023-04-10T02:02:24.752Z,99.90
2023-04-10T02:04:51.914Z,99.90
2023-04-10T02:07:38.939Z,99.90
2023-04-10T02:10:11.727Z,99.90
2023-04-10T02:12:56.717Z,99.90
2023-04-10T02:15:24.224Z,99.90
2023-04-10T02:17:50.946Z,99.90
2023-04-10T02:20:18.647Z,99.90
2023-04-10T02:22:45.491Z,99.90
2023-04-10T02:25:12.141Z,99.90
2023-04-10T02:27:39.635Z,99.90
2023-04-10T02:30:06.932Z,99.90
2023-04-10T02:32:33.765Z,99.90
2023-04-10T02:35:01.758Z,99.90
2023-04-10T02:37:29.041Z,99.90
2023-04-10T02:39:55.827Z,99.90
2023-04-10T02:42:22.567Z,99.90
2023-04-10T02:44:49.330Z,99.90
2023-04-10T02:47:16.615Z,99.90
2023-04-10T02:49:44.516Z,99.90
2023-04-10T02:52:11.440Z,99.90
2023-04-10T02:54:38.125Z,99.90
2023-04-10T02:57:04.937Z,99.90
2023-04-10T02:59:31.765Z,99.90
2023-04-10T03:01:58.464Z,99.90
2023-04-10T03:04:25.345Z,99.90
2023-04-10T03:06:52.172Z,99.90
2023-04-10T03:09:18.879Z,99.90
2023-04-10T03:11:46.027Z,99.90
2023-04-10T03:14:12.717Z,99.90
2023-04-10T03:16:39.746Z,99.90
2023-04-10T03:19:07.826Z,99.90
2023-04-10T03:21:34.531Z,99.90
2023-04-10T03:24:01.180Z,99.90
2023-04-10T03:26:27.875Z,99.90
2023-04-10T03:28:54.656Z,99.90
2023-04-10T03:31:21.388Z,99.90
2023-04-10T03:33:48.091Z,99.90
2023-04-10T03:36:14.913Z,99.90
2023-04-10T03:38:41.565Z,99.90
2023-04-10T03:41:08.260Z,99.90
2023-04-10T03:43:35.316Z,99.90
2023-04-10T03:46:02.032Z,99.90
2023-04-10T03:48:30.606Z,99.90
2023-04-10T03:50:57.428Z,99.90
2023-04-10T03:53:24.579Z,99.90
2023-04-10T03:55:52.646Z,99.90
2023-04-10T03:58:19.437Z,99.90
2023-04-10T04:00:46.362Z,99.90
2023-04-10T04:03:13.295Z,99.90
2023-04-10T04:05:40.357Z,99.90
2023-04-10T04:08:07.597Z,99.90
2023-04-10T04:10:34.335Z,99.90
2023-04-10T04:13:01.432Z,99.90
2023-04-10T04:15:28.173Z,99.90
2023-04-10T04:17:54.879Z,99.90
2023-04-10T04:20:21.608Z,99.90
2023-04-10T04:22:48.460Z,99.90
2023-04-10T04:25:15.669Z,99.90
2023-04-10T04:27:42.416Z,99.90
2023-04-10T04:30:09.359Z,99.90
2023-04-10T04:32:38.627Z,99.90
2023-04-10T04:35:05.841Z,99.90
2023-04-10T04:37:32.813Z,99.90
2023-04-10T04:39:59.568Z,99.90
2023-04-10T04:42:26.473Z,99.90
2023-04-10T04:44:57.056Z,99.90
2023-04-10T04:47:25.474Z,99.90
2023-04-10T04:49:52.571Z,99.90
2023-04-10T04:52:19.303Z,99.90
2023-04-10T04:54:46.037Z,99.90
2023-04-10T04:57:12.714Z,99.90
2023-04-10T04:59:39.410Z,99.90
2023-04-10T05:02:06.486Z,99.90
2023-04-10T05:04:33.286Z,99.90
2023-04-10T05:07:00.053Z,99.90
2023-04-10T05:09:26.771Z,99.90
2023-04-10T05:11:54.554Z,99.90
2023-04-10T05:14:22.344Z,99.90
2023-04-10T05:16:49.023Z,99.90
2023-04-10T05:19:15.737Z,99.90
2023-04-10T05:21:42.632Z,99.90
2023-04-10T05:24:09.447Z,99.90
2023-04-10T05:26:37.274Z,99.90
2023-04-10T05:29:04.328Z,99.90
2023-04-10T05:31:31.114Z,99.90
2023-04-10T05:33:57.837Z,99.90
2023-04-10T05:36:24.593Z,99.90
2023-04-10T05:38:51.317Z,99.90
2023-04-10T05:41:17.932Z,99.90
2023-04-10T05:43:44.598Z,99.90
2023-04-10T05:46:11.929Z,99.90
2023-04-10T05:48:39.424Z,99.90
2023-04-10T05:51:06.253Z,99.90
2023-04-10T05:53:33.468Z,99.90
2023-04-10T05:56:00.274Z,99.90
2023-04-10T05:58:28.481Z,99.90
2023-04-10T06:00:56.222Z,99.90
2023-04-10T06:03:23.961Z,99.90
2023-04-10T06:05:50.774Z,99.90
2023-04-10T06:08:17.509Z,99.90
2023-04-10T06:10:44.468Z,99.90
2023-04-10T06:13:11.566Z,99.90
2023-04-10T06:15:38.395Z,99.90
2023-04-10T06:18:05.426Z,99.90
2023-04-10T06:20:32.226Z,99.90
2023-04-10T06:22:59.036Z,99.90
2023-04-10T06:25:26.588Z,99.90
2023-04-10T06:27:55.093Z,99.90
2023-04-10T06:30:21.773Z,99.90
2023-04-10T06:32:48.505Z,99.90
2023-04-10T06:35:16.001Z,99.90
2023-04-10T06:37:42.834Z,99.90
2023-04-10T06:40:10.176Z,99.90
2023-04-10T06:42:37.276Z,99.90
2023-04-10T06:45:04.079Z,99.90
2023-04-10T06:47:32.472Z,99.90
2023-04-10T06:55:39.431Z,99.90
2023-04-10T06:58:06.561Z,99.90
2023-04-10T07:00:33.894Z,99.90
2023-04-10T07:03:00.924Z,99.40
2023-04-10T07:05:27.623Z,99.90
2023-04-10T07:07:54.324Z,99.90
2023-04-10T07:10:23.548Z,99.90
2023-04-10T07:12:50.631Z,99.90
2023-04-10T07:15:17.539Z,99.90
2023-04-10T07:17:44.925Z,99.90
2023-04-10T07:20:11.965Z,99.90
2023-04-10T07:22:38.596Z,98.90
2023-04-10T07:25:07.337Z,98.80
2023-04-10T07:27:34.238Z,99.90
2023-04-10T07:30:01.701Z,99.90
2023-04-10T07:32:28.610Z,97.30
2023-04-10T07:34:55.844Z,94.40
2023-04-10T07:37:22.718Z,96.90
2023-04-10T07:39:49.879Z,95.40
2023-04-10T07:42:16.506Z,94.30
2023-04-10T07:44:51.577Z,93.80
2023-04-10T07:47:21.952Z,92.90
2023-04-10T07:49:49.389Z,92.50
2023-04-10T07:52:16.298Z,92.10
2023-04-10T07:54:43.868Z,91.20
2023-04-10T07:57:20.538Z,93.30
2023-04-10T07:59:47.508Z,92.30
2023-04-10T08:02:14.439Z,92.80
2023-04-10T08:04:42.860Z,92.70
2023-04-10T08:24:25.898Z,92.60
2023-04-10T08:49:58.840Z,91.80
2023-04-10T08:52:25.959Z,92.90
2023-04-10T08:54:56.899Z,91.10
2023-04-10T09:21:05.311Z,93.60
2023-04-10T10:33:50.297Z,89.60
2023-04-10T10:36:48.595Z,88.30
2023-04-10T10:56:56.258Z,84.70
2023-04-10T11:28:56.091Z,84.00
2023-04-10T12:01:43.343Z,77.20
2023-04-10T19:53:32.492Z,97.00
2023-04-10T19:56:11.225Z,96.70
2023-04-10T19:58:48.056Z,98.00
2023-04-10T20:01:18.266Z,98.40
2023-04-10T20:03:48.903Z,98.70
2023-04-10T20:06:16.253Z,99.10
2023-04-10T20:08:45.369Z,99.30
2023-04-10T20:11:14.331Z,99.30
2023-04-10T20:13:53.530Z,99.90
2023-04-10T20:16:25.389Z,99.90
2023-04-10T20:18:54.285Z,99.90
2023-04-10T20:21:23.736Z,99.90
2023-04-10T20:23:59.110Z,99.90
2023-04-10T20:26:25.832Z,99.90
2023-04-10T20:28:55.434Z,99.90
2023-04-10T20:31:23.805Z,99.90
2023-04-10T20:33:58.290Z,99.90
2023-04-10T20:36:25.018Z,99.90
2023-04-10T20:38:52.266Z,99.90
2023-04-10T20:41:19.073Z,99.90
2023-04-10T20:43:49.134Z,99.90
2023-04-10T20:46:16.749Z,99.90
2023-04-10T20:48:45.955Z,99.90
2023-04-10T20:51:13.227Z,99.90
2023-04-10T20:53:40.754Z,99.90
2023-04-10T20:56:12.050Z,99.90
2023-04-10T20:58:38.787Z,99.90
2023-04-10T21:01:08.120Z,99.90
2023-04-10T21:03:35.267Z,99.90
2023-04-10T21:06:06.528Z,99.90
2023-04-10T21:08:45.298Z,99.90
2023-04-10T21:11:15.648Z,99.90
2023-04-10T21:13:49.901Z,99.90
2023-04-10T21:16:17.185Z,99.90
2023-04-10T21:18:46.274Z,99.90
2023-04-10T21:21:12.887Z,99.90
2023-04-10T21:23:39.966Z,99.90
2023-04-10T21:26:07.527Z,99.90
2023-04-10T21:28:35.337Z,99.90
2023-04-10T21:31:03.289Z,99.90
2023-04-10T21:33:32.828Z,99.90
2023-04-10T21:36:01.117Z,99.90
2023-04-10T21:38:28.913Z,99.90
2023-04-10T21:40:58.691Z,99.90
2023-04-10T21:43:26.480Z,99.90
2023-04-10T21:46:01.496Z,99.90
2023-04-10T21:48:44.633Z,99.90
2023-04-10T21:51:22.300Z,99.90
2023-04-10T21:53:49.329Z,99.90
2023-04-10T21:56:17.991Z,99.90
2023-04-10T21:58:46.328Z,99.90
2023-04-10T22:01:14.196Z,99.90
2023-04-10T22:03:41.221Z,99.90
2023-04-10T22:06:11.104Z,99.90
2023-04-10T22:08:41.351Z,99.90
2023-04-10T22:11:10.444Z,99.90
2023-04-10T22:13:37.451Z,99.90
2023-04-10T22:16:06.472Z,99.90
2023-04-10T22:18:33.293Z,99.90
2023-04-10T22:21:00.145Z,99.90
2023-04-10T22:23:27.038Z,99.90
2023-04-10T22:25:54.179Z,99.90
2023-04-10T22:28:21.719Z,99.90
2023-04-10T22:30:48.468Z,99.90
2023-04-10T22:33:15.692Z,99.90
2023-04-10T22:35:42.844Z,99.90
2023-04-10T22:38:09.966Z,99.90
2023-04-10T22:40:36.701Z,99.90
2023-04-10T22:43:03.408Z,99.90
2023-04-10T22:45:31.216Z,99.90
2023-04-10T22:47:57.973Z,99.90
2023-04-10T22:50:25.015Z,99.90
2023-04-10T22:52:51.612Z,99.90
2023-04-10T22:55:18.490Z,99.90
2023-04-10T22:57:50.034Z,99.90
2023-04-10T23:00:16.845Z,99.90
2023-04-10T23:02:44.831Z,99.90
2023-04-10T23:05:12.670Z,99.90
2023-04-10T23:07:39.877Z,99.90
2023-04-10T23:10:10.187Z,99.90
2023-04-10T23:12:37.828Z,99.90
2023-04-10T23:15:05.606Z,99.90
2023-04-10T23:17:33.123Z,99.90
2023-04-10T23:19:59.951Z,99.90
2023-04-10T23:22:29.965Z,99.90
2023-04-10T23:25:01.831Z,99.90
2023-04-10T23:27:28.451Z,99.90
2023-04-10T23:29:55.124Z,99.90
2023-04-10T23:32:22.058Z,99.90
2023-04-10T23:34:48.888Z,99.90
2023-04-10T23:37:15.524Z,99.90
2023-04-10T23:39:42.216Z,99.90
2023-04-10T23:42:08.908Z,99.90
2023-04-10T23:44:37.147Z,99.90
2023-04-10T23:47:03.915Z,99.90
2023-04-10T23:49:30.783Z,99.90
2023-04-10T23:51:57.505Z,99.90
2023-04-10T23:54:28.719Z,99.90
2023-04-10T23:56:55.919Z,99.90
2023-04-10T23:59:22.933Z,99.90
